Time;durP1;ratioP1;P1;durP2;ratioP2;P2;SDS_P1;SDS_P2;PMS_P1;PMS_P2;Temp;Humidity;BMP_temperature;BMP_pressure;BME280_temperature;BME280_humidity;BME280_pressure;Samples;Min_cycle;Max_cycle;Signal;HPM_P1;HPM_P2
2021/05/22 00:00:35;;;;;;;6.49;4.46;;;;;;;;;;354101;150;865368;-60
2021/05/22 00:01:37;;;;;;;9.11;4.15;;;;;;;;;;355233;151;857342;-60
2021/05/22 00:02:38;;;;;;;5.99;4.54;;;;;;;;;;354319;150;858274;-59
2021/05/22 00:03:40;;;;;;;6.98;4.93;;;;;;;;;;348949;151;866522;-60
2021/05/22 00:04:41;;;;;;;10.58;4.35;;;;;;;;;;351408;151;866341;-60
2021/05/22 00:05:43;;;;;;;5.91;4.54;;;;;;;;;;351311;150;859528;-60
2021/05/22 00:06:46;;;;;;;7.08;4.19;;;;;;;;;;355041;151;857871;-59
2021/05/22 00:07:48;;;;;;;8.95;4.51;;;;;;;;;;350901;150;857408;-60
2021/05/22 00:08:50;;;;;;;8.63;4.37;;;;;;;;;;352168;150;865946;-59
2021/05/22 00:09:51;;;;;;;7.58;4.34;;;;;;;;;;349276;151;859894;-59
2021/05/22 00:10:53;;;;;;;12.43;4.27;;;;;;;;;;352719;149;864900;-59
2021/05/22 00:11:55;;;;;;;6.74;4.71;;;;;;;;;;353883;148;857387;-59
2021/05/22 00:12:56;;;;;;;6.27;4.38;;;;;;;;;;348923;154;866627;-59
2021/05/22 00:13:58;;;;;;;6.85;4.71;;;;;;;;;;350811;150;859137;-59
2021/05/22 00:15:01;;;;;;;8.36;4.44;;;;;;;;;;350776;151;858224;-60
2021/05/22 00:16:03;;;;;;;10.69;4.54;;;;;;;;;;351800;149;866648;-59
2021/05/22 00:17:05;;;;;;;7.26;4.75;;;;;;;;;;349246;150;857355;-59
2021/05/22 00:18:06;;;;;;;8.39;4.67;;;;;;;;;;352150;151;860150;-60
2021/05/22 00:19:08;;;;;;;6.74;4.52;;;;;;;;;;351235;150;857305;-59
2021/05/22 00:20:11;;;;;;;7.05;4.47;;;;;;;;;;348965;154;857265;-59
2021/05/22 00:21:13;;;;;;;6.22;4.37;;;;;;;;;;350243;151;857804;-59
2021/05/22 00:22:15;;;;;;;6.12;4.67;;;;;;;;;;350512;150;858125;-59
2021/05/22 00:23:17;;;;;;;9.66;4.54;;;;;;;;;;352756;151;858852;-59
2021/05/22 00:24:18;;;;;;;7.36;4.68;;;;;;;;;;353086;150;858096;-59
2021/05/22 00:25:20;;;;;;;7.37;4.72;;;;;;;;;;354162;150;865079;-59
2021/05/22 00:26:22;;;;;;;11.59;4.74;;;;;;;;;;348981;154;857463;-59
2021/05/22 00:27:23;;;;;;;9.74;4.88;;;;;;;;;;352107;150;866909;-59
2021/05/22 00:28:25;;;;;;;10.77;5.14;;;;;;;;;;353233;151;866883;-59
2021/05/22 00:29:27;;;;;;;12.41;5.05;;;;;;;;;;350310;150;865997;-59
2021/05/22 00:30:30;;;;;;;9.24;4.85;;;;;;;;;;350005;151;867001;-60
2021/05/22 00:31:32;;;;;;;10.89;4.92;;;;;;;;;;348855;154;856592;-60
2021/05/22 00:32:34;;;;;;;7.43;4.97;;;;;;;;;;350117;150;865858;-59
2021/05/22 00:33:35;;;;;;;11.80;5.60;;;;;;;;;;354816;151;857710;-59
2021/05/22 00:34:37;;;;;;;11.81;5.46;;;;;;;;;;353328;151;866022;-59
2021/05/22 00:35:39;;;;;;;14.04;5.14;;;;;;;;;;352567;150;859118;-58
2021/05/22 00:36:42;;;;;;;8.61;5.06;;;;;;;;;;353035;151;865070;-59
2021/05/22 00:37:43;;;;;;;8.51;4.91;;;;;;;;;;352217;150;857289;-59
2021/05/22 00:38:45;;;;;;;11.58;5.21;;;;;;;;;;349541;150;859651;-59
2021/05/22 00:39:47;;;;;;;10.32;4.80;;;;;;;;;;348801;154;865754;-59
2021/05/22 00:40:48;;;;;;;7.92;4.95;;;;;;;;;;351340;150;857735;-59
2021/05/22 00:41:50;;;;;;;10.45;4.75;;;;;;;;;;353760;151;864908;-59
2021/05/22 00:42:51;;;;;;;13.59;5.33;;;;;;;;;;349500;150;857272;-59
2021/05/22 00:43:53;;;;;;;13.68;5.09;;;;;;;;;;352798;150;857349;-59
2021/05/22 00:45:02;;;;;;;11.57;5.28;;;;;;;;;;351597;151;857272;-59
2021/05/22 00:46:04;;;;;;;9.63;4.93;;;;;;;;;;350682;149;858217;-59
2021/05/22 00:47:06;;;;;;;9.24;4.85;;;;;;;;;;354889;151;857704;-59
2021/05/22 00:48:08;;;;;;;8.64;5.40;;;;;;;;;;355404;151;859030;-59
2021/05/22 00:49:09;;;;;;;10.22;5.31;;;;;;;;;;349032;149;867572;-59
2021/05/22 00:50:16;;;;;;;10.93;5.14;;;;;;;;;;350343;151;866454;-59
2021/05/22 00:51:18;;;;;;;11.13;5.46;;;;;;;;;;353863;151;857491;-60
2021/05/22 00:52:20;;;;;;;7.26;4.64;;;;;;;;;;350546;151;859469;-59
2021/05/22 00:53:21;;;;;;;13.01;5.04;;;;;;;;;;348917;149;863289;-59
2021/05/22 00:54:23;;;;;;;14.89;4.94;;;;;;;;;;351034;150;857647;-59
2021/05/22 00:55:24;;;;;;;11.26;5.19;;;;;;;;;;349903;151;857536;-60
2021/05/22 00:56:27;;;;;;;14.34;5.01;;;;;;;;;;348897;154;857508;-59
2021/05/22 00:57:29;;;;;;;14.66;4.97;;;;;;;;;;354625;149;864969;-61
2021/05/22 00:58:30;;;;;;;11.45;5.35;;;;;;;;;;355235;151;864940;-59
2021/05/22 00:59:32;;;;;;;13.91;5.39;;;;;;;;;;353273;150;857361;-59
2021/05/22 01:00:47;;;;;;;10.95;5.15;;;;;;;;;;349568;151;866172;-59
2021/05/22 01:01:48;;;;;;;8.32;5.39;;;;;;;;;;354220;151;859222;-59
2021/05/22 01:02:50;;;;;;;10.85;4.93;;;;;;;;;;352820;150;858639;-60
2021/05/22 01:03:53;;;;;;;9.89;5.34;;;;;;;;;;349538;149;864939;-59
2021/05/22 01:04:55;;;;;;;11.68;5.19;;;;;;;;;;349254;150;857786;-60
2021/05/22 01:06:15;;;;;;;14.61;5.53;;;;;;;;;;352360;149;857773;-60
2021/05/22 01:07:17;;;;;;;6.60;5.21;;;;;;;;;;354308;151;865757;-60
2021/05/22 01:08:22;;;;;;;10.17;5.61;;;;;;;;;;350580;149;858656;-59
2021/05/22 01:09:24;;;;;;;8.43;5.26;;;;;;;;;;350028;151;858069;-59
2021/05/22 01:10:26;;;;;;;10.27;5.51;;;;;;;;;;349806;149;857430;-60
2021/05/22 01:11:29;;;;;;;12.11;5.22;;;;;;;;;;354923;151;865863;-59
2021/05/22 01:12:32;;;;;;;8.43;5.34;;;;;;;;;;350925;151;858556;-59
2021/05/22 01:13:35;;;;;;;9.98;5.60;;;;;;;;;;353206;149;857282;-60
2021/05/22 01:14:39;;;;;;;9.17;5.21;;;;;;;;;;354860;151;865976;-60
2021/05/22 01:15:40;;;;;;;8.77;5.47;;;;;;;;;;352552;151;857245;-59
2021/05/22 01:16:44;;;;;;;9.27;5.71;;;;;;;;;;348777;151;858680;-59
2021/05/22 01:17:47;;;;;;;10.51;5.66;;;;;;;;;;348913;154;865631;-59
2021/05/22 01:18:48;;;;;;;9.68;5.28;;;;;;;;;;349927;151;865289;-59
2021/05/22 01:20:04;;;;;;;10.56;5.26;;;;;;;;;;348932;154;857396;-59
2021/05/22 01:21:05;;;;;;;9.18;5.22;;;;;;;;;;352206;149;857800;-59
2021/05/22 01:22:07;;;;;;;12.90;5.69;;;;;;;;;;351215;150;857635;-58
2021/05/22 01:23:22;;;;;;;10.14;5.48;;;;;;;;;;351872;151;865564;-61
2021/05/22 01:24:24;;;;;;;9.06;5.50;;;;;;;;;;350348;150;867477;-59
2021/05/22 01:25:28;;;;;;;11.97;5.41;;;;;;;;;;352274;151;859526;-59
2021/05/22 01:26:31;;;;;;;9.42;5.40;;;;;;;;;;350346;149;858058;-59
2021/05/22 01:27:33;;;;;;;10.07;5.23;;;;;;;;;;349265;151;857652;-59
2021/05/22 01:28:35;;;;;;;10.21;5.60;;;;;;;;;;352598;151;864912;-58
2021/05/22 01:29:36;;;;;;;9.50;5.09;;;;;;;;;;350844;149;857851;-59
2021/05/22 01:30:38;;;;;;;11.08;5.69;;;;;;;;;;348924;152;858025;-59
2021/05/22 01:31:40;;;;;;;9.37;5.32;;;;;;;;;;354007;150;865180;-59
2021/05/22 01:32:41;;;;;;;11.52;6.11;;;;;;;;;;348804;151;866024;-60
2021/05/22 01:33:43;;;;;;;10.72;5.77;;;;;;;;;;350371;151;865741;-61
2021/05/22 01:34:45;;;;;;;9.61;5.79;;;;;;;;;;351130;149;867039;-59
2021/05/22 01:35:46;;;;;;;15.05;5.75;;;;;;;;;;350981;151;860700;-59
2021/05/22 01:36:49;;;;;;;9.09;5.23;;;;;;;;;;348912;154;865363;-60
2021/05/22 01:37:51;;;;;;;14.19;5.18;;;;;;;;;;349623;150;865086;-60
2021/05/22 01:38:52;;;;;;;8.34;5.43;;;;;;;;;;349263;151;858706;-59
2021/05/22 01:39:54;;;;;;;11.11;6.41;;;;;;;;;;348779;152;857284;-59
2021/05/22 01:40:56;;;;;;;9.62;6.16;;;;;;;;;;348941;150;857260;-59
2021/05/22 01:41:57;;;;;;;7.87;5.48;;;;;;;;;;348858;154;865503;-59
2021/05/22 01:42:59;;;;;;;10.97;6.04;;;;;;;;;;350342;149;857815;-59
2021/05/22 01:44:01;;;;;;;9.74;5.54;;;;;;;;;;349498;151;857296;-59
2021/05/22 01:45:04;;;;;;;7.52;6.02;;;;;;;;;;349894;150;858841;-59
2021/05/22 01:46:05;;;;;;;9.30;5.41;;;;;;;;;;351424;151;857414;-59
2021/05/22 01:47:07;;;;;;;8.19;5.27;;;;;;;;;;355435;151;859940;-61
2021/05/22 01:48:10;;;;;;;9.03;5.69;;;;;;;;;;353475;151;857498;-59
2021/05/22 01:49:12;;;;;;;8.89;5.33;;;;;;;;;;351082;151;859120;-58
2021/05/22 01:50:15;;;;;;;13.45;6.10;;;;;;;;;;349349;154;859228;-58
2021/05/22 01:51:17;;;;;;;10.17;5.76;;;;;;;;;;350116;149;858152;-58
2021/05/22 01:52:19;;;;;;;7.31;5.73;;;;;;;;;;352572;151;857370;-59
2021/05/22 01:53:21;;;;;;;12.71;6.29;;;;;;;;;;352894;151;857404;-58
2021/05/22 01:54:22;;;;;;;14.87;5.88;;;;;;;;;;354444;149;865524;-60
2021/05/22 01:55:24;;;;;;;8.44;5.97;;;;;;;;;;350903;151;857423;-59
2021/05/22 01:56:26;;;;;;;8.08;5.55;;;;;;;;;;353301;149;857539;-59
2021/05/22 01:57:31;;;;;;;8.63;5.72;;;;;;;;;;349270;151;857467;-59
2021/05/22 01:58:32;;;;;;;9.14;5.55;;;;;;;;;;350011;151;867260;-59
2021/05/22 01:59:35;;;;;;;10.44;5.71;;;;;;;;;;352392;149;866189;-59
2021/05/22 02:00:39;;;;;;;12.92;6.32;;;;;;;;;;355838;149;865000;-59
2021/05/22 02:01:41;;;;;;;11.71;5.59;;;;;;;;;;353378;151;857732;-58
2021/05/22 02:02:47;;;;;;;13.01;6.20;;;;;;;;;;350170;150;860360;-58
2021/05/22 02:03:49;;;;;;;12.75;6.23;;;;;;;;;;350950;151;859826;-59
2021/05/22 02:04:50;;;;;;;8.96;5.52;;;;;;;;;;350035;149;857373;-59
2021/05/22 02:05:52;;;;;;;12.29;5.36;;;;;;;;;;349226;154;864990;-59
2021/05/22 02:06:54;;;;;;;9.27;6.01;;;;;;;;;;350231;151;857494;-59
2021/05/22 02:07:56;;;;;;;8.75;6.02;;;;;;;;;;353763;149;857283;-61
2021/05/22 02:08:58;;;;;;;9.61;6.11;;;;;;;;;;350681;151;857272;-60
2021/05/22 02:10:00;;;;;;;9.43;5.51;;;;;;;;;;351541;150;866790;-59
2021/05/22 02:11:01;;;;;;;9.73;6.49;;;;;;;;;;350526;151;857232;-60
2021/05/22 02:12:03;;;;;;;15.25;6.30;;;;;;;;;;349332;154;857581;-59
2021/05/22 02:13:05;;;;;;;10.27;5.88;;;;;;;;;;351560;149;865851;-60
2021/05/22 02:14:07;;;;;;;7.86;5.70;;;;;;;;;;351445;151;858806;-60
2021/05/22 02:15:09;;;;;;;10.49;6.10;;;;;;;;;;351229;151;865130;-59
2021/05/22 02:16:13;;;;;;;13.61;6.24;;;;;;;;;;349591;149;858751;-60
2021/05/22 02:17:14;;;;;;;11.65;6.35;;;;;;;;;;349242;154;857213;-59
2021/05/22 02:18:16;;;;;;;11.05;6.48;;;;;;;;;;351307;150;863358;-60
2021/05/22 02:19:17;;;;;;;10.41;6.08;;;;;;;;;;350699;151;860353;-60
2021/05/22 02:20:20;;;;;;;10.81;6.50;;;;;;;;;;349158;150;866067;-59
2021/05/22 02:21:26;;;;;;;10.09;6.00;;;;;;;;;;353491;149;857364;-59
2021/05/22 02:22:28;;;;;;;9.84;6.12;;;;;;;;;;353843;151;859081;-59
2021/05/22 02:23:30;;;;;;;14.15;6.27;;;;;;;;;;353134;149;857689;-59
2021/05/22 02:24:31;;;;;;;9.18;6.01;;;;;;;;;;352282;151;865641;-59
2021/05/22 02:25:33;;;;;;;11.42;6.14;;;;;;;;;;350260;151;865813;-59
2021/05/22 02:26:35;;;;;;;9.99;5.79;;;;;;;;;;351757;149;858002;-59
2021/05/22 02:27:37;;;;;;;11.32;6.20;;;;;;;;;;349344;151;858954;-59
2021/05/22 02:28:39;;;;;;;14.56;6.30;;;;;;;;;;351483;150;857466;-59
2021/05/22 02:29:41;;;;;;;9.93;6.57;;;;;;;;;;350032;149;865020;-59
2021/05/22 02:30:43;;;;;;;11.22;6.85;;;;;;;;;;349627;151;865019;-59
2021/05/22 02:31:45;;;;;;;13.83;6.99;;;;;;;;;;345755;152;857333;-60
2021/05/22 02:32:48;;;;;;;8.74;6.21;;;;;;;;;;348688;154;866132;-59
2021/05/22 02:33:50;;;;;;;10.88;6.75;;;;;;;;;;350591;150;857485;-59
2021/05/22 02:34:54;;;;;;;14.47;7.20;;;;;;;;;;351193;149;865036;-59
2021/05/22 02:35:57;;;;;;;11.76;7.37;;;;;;;;;;354194;150;857390;-60
2021/05/22 02:36:59;;;;;;;16.31;7.57;;;;;;;;;;354197;149;857190;-60
2021/05/22 02:38:00;;;;;;;15.46;7.70;;;;;;;;;;355300;151;857270;-60
2021/05/22 02:39:03;;;;;;;12.21;7.66;;;;;;;;;;352801;151;858623;-59
2021/05/22 02:40:07;;;;;;;11.56;7.36;;;;;;;;;;351229;149;858840;-59
2021/05/22 02:41:09;;;;;;;16.60;8.61;;;;;;;;;;350126;151;859146;-61
2021/05/22 02:42:11;;;;;;;13.04;7.16;;;;;;;;;;352467;149;857894;-61
2021/05/22 02:43:13;;;;;;;15.90;7.99;;;;;;;;;;349370;149;857168;-60
2021/05/22 02:53:40;;;;;;;13.03;8.24;;;;;;;9.15;62.31;99828.70;374854;141;881638;-60
2021/05/22 02:54:43;;;;;;;16.64;8.94;;;;;;;9.06;62.41;99823.57;366011;147;859616;-59
2021/05/22 02:55:45;;;;;;;17.63;8.94;;;;;;;9.09;62.41;99825.30;358062;147;857408;-59
2021/05/22 02:56:47;;;;;;;13.81;8.31;;;;;;;9.10;62.59;99825.28;356958;148;859116;-60
2021/05/22 02:57:49;;;;;;;15.68;8.34;;;;;;;9.13;62.73;99833.02;361043;147;865465;-63
2021/05/22 02:58:51;;;;;;;16.73;8.67;;;;;;;9.15;62.75;99831.28;365931;144;866148;-59
2021/05/22 02:59:53;;;;;;;12.55;8.34;;;;;;;9.19;62.92;99835.57;365991;144;857770;-60
2021/05/22 03:00:54;;;;;;;12.73;8.25;;;;;;;9.23;63.05;99823.52;358312;150;866368;-60
2021/05/22 03:01:57;;;;;;;18.27;9.34;;;;;;;9.28;63.01;99826.94;360601;144;857253;-62
2021/05/22 03:02:59;;;;;;;18.23;9.52;;;;;;;9.32;62.93;99831.22;366317;144;857270;-60
2021/05/22 03:04:01;;;;;;;17.25;9.71;;;;;;;9.37;62.95;99836.36;369506;144;857202;-60
2021/05/22 03:05:04;;;;;;;15.76;9.91;;;;;;;9.42;63.03;99833.77;366707;144;865101;-61
2021/05/22 03:06:06;;;;;;;22.77;11.09;;;;;;;9.47;63.19;99832.86;365936;144;865028;-60
2021/05/22 03:07:08;;;;;;;30.20;13.12;;;;;;;9.55;63.04;99838.00;366346;144;857278;-60
2021/05/22 03:08:10;;;;;;;22.83;12.78;;;;;;;9.62;62.76;99831.92;366636;144;857193;-62
2021/05/22 03:09:12;;;;;;;21.37;12.19;;;;;;;9.70;62.82;99842.23;367012;144;864802;-64
2021/05/22 03:10:15;;;;;;;20.73;11.85;;;;;;;9.70;62.82;99842.23;366065;144;858913;-64
2021/05/22 03:11:19;;;;;;;16.39;11.17;;;;;;;9.85;62.87;99843.00;361555;147;860030;-63
2021/05/22 03:12:24;;;;;;;22.01;10.98;;;;;;;9.94;62.93;99846.36;358550;147;859221;-62
2021/05/22 03:13:26;;;;;;;27.19;13.76;;;;;;;10.05;63.17;99846.30;360580;147;858519;-60
2021/05/22 03:14:28;;;;;;;30.45;15.26;;;;;;;10.17;62.99;99842.78;359135;150;857581;-61
2021/05/22 03:15:30;;;;;;;25.85;14.76;;;;;;;10.29;62.47;99840.95;359223;150;865074;-61
2021/05/22 03:16:32;;;;;;;27.72;14.09;;;;;;;10.37;62.22;99845.18;361319;147;859198;-63
2021/05/22 03:17:34;;;;;;;25.62;13.71;;;;;;;10.43;62.17;99848.61;359305;150;858970;-60
2021/05/22 03:18:35;;;;;;;28.71;14.10;;;;;;;10.45;62.20;99846.88;359580;147;865066;-59
2021/05/22 03:19:37;;;;;;;23.08;13.84;;;;;;;10.50;62.26;99850.27;360660;146;865780;-62
2021/05/22 03:20:40;;;;;;;26.09;14.05;;;;;;;10.56;62.09;99846.78;359153;150;865912;-60
2021/05/22 03:21:41;;;;;;;28.62;14.50;;;;;;;10.63;62.10;99848.44;361415;144;859330;-60
2021/05/22 03:22:43;;;;;;;27.37;14.89;;;;;;;10.71;61.99;99849.22;357299;148;865873;-60
2021/05/22 03:23:45;;;;;;;22.38;14.61;;;;;;;10.77;61.74;99843.98;356645;149;859115;-60
2021/05/22 03:24:47;;;;;;;28.43;14.03;;;;;;;10.85;61.43;99845.62;360386;144;867361;-61
2021/05/22 03:25:49;;;;;;;29.71;13.59;;;;;;;10.92;61.19;99840.37;363415;144;858328;-62
2021/05/22 03:26:53;;;;;;;24.29;13.77;;;;;;;10.96;60.35;99839.47;363213;144;864919;-61
2021/05/22 03:27:55;;;;;;;28.68;13.93;;;;;;;11.01;60.06;99844.58;362341;146;859644;-58
2021/05/22 03:28:56;;;;;;;27.54;13.75;;;;;;;11.05;59.87;99845.42;362969;147;857536;-57
2021/05/22 03:29:58;;;;;;;23.03;13.64;;;;;;;11.09;59.97;99844.51;363891;147;865139;-58
2021/05/22 03:31:00;;;;;;;25.37;13.89;;;;;;;11.16;59.85;99853.92;360439;146;866214;-58
2021/05/22 03:32:02;;;;;;;29.46;14.86;;;;;;;11.16;59.85;99853.92;361616;147;857249;-59
2021/05/22 03:33:05;;;;;;;29.27;14.41;;;;;;;11.29;59.66;99851.19;361680;144;865535;-58
2021/05/22 03:34:06;;;;;;;26.09;14.70;;;;;;;11.34;59.63;99850.27;360730;144;858583;-59
2021/05/22 03:35:09;;;;;;;26.32;14.22;;;;;;;11.39;59.79;99843.28;362184;144;857417;-57
2021/05/22 03:36:12;;;;;;;26.97;13.67;;;;;;;11.44;59.42;99842.37;362358;144;864999;-58
2021/05/22 03:37:14;;;;;;;24.67;13.37;;;;;;;11.47;59.19;99848.34;365376;144;857406;-57
2021/05/22 03:38:15;;;;;;;24.31;13.05;;;;;;;11.50;58.95;99845.72;363762;147;857300;-57
2021/05/22 03:39:18;;;;;;;24.36;13.07;;;;;;;11.55;58.93;99845.67;362067;144;864725;-57
2021/05/22 03:40:22;;;;;;;23.68;13.45;;;;;;;11.60;58.86;99848.19;361655;147;865050;-57
2021/05/22 03:41:23;;;;;;;23.26;13.31;;;;;;;11.66;59.07;99842.91;360267;147;865216;-57
2021/05/22 03:42:25;;;;;;;23.02;13.19;;;;;;;11.75;59.63;99852.31;361546;144;866715;-57
2021/05/22 03:43:27;;;;;;;20.17;12.91;;;;;;;11.80;59.56;99853.97;360737;144;865085;-59
2021/05/22 03:44:29;;;;;;;22.23;11.66;;;;;;;11.89;59.72;99849.53;361833;144;859143;-59
2021/05/22 03:45:30;;;;;;;24.65;14.14;;;;;;;11.95;59.84;99855.47;362728;144;866671;-60
2021/05/22 03:46:33;;;;;;;26.31;13.69;;;;;;;12.04;60.19;99858.83;361774;144;864893;-60
2021/05/22 03:47:34;;;;;;;20.28;11.88;;;;;;;12.12;60.39;99854.38;359988;147;857289;-59
2021/05/22 03:48:36;;;;;;;21.31;12.62;;;;;;;12.17;60.26;99852.56;360547;147;864828;-62
2021/05/22 03:49:38;;;;;;;20.91;12.17;;;;;;;12.24;60.14;99856.80;361873;147;864813;-61
2021/05/22 03:50:40;;;;;;;21.51;11.93;;;;;;;12.33;60.00;99858.38;363675;147;864935;-63
2021/05/22 03:51:42;;;;;;;24.39;12.04;;;;;;;;;;364590;147;859258;-64
2021/05/22 03:52:43;;;;;;;19.28;11.24;;;;;;;;;;360708;147;865604;-61
2021/05/22 03:53:45;;;;;;;22.98;10.47;;;;;;;;;;359442;146;858180;-63
2021/05/22 03:54:46;;;;;;;16.36;9.49;;;;;;;;;;358254;147;857485;-61
2021/05/22 03:55:48;;;;;;;20.07;9.21;;;;;;;;;;356039;147;857872;-64
2021/05/22 03:56:50;;;;;;;17.71;9.94;;;;;;;;;;356140;147;860074;-61
2021/05/22 03:57:52;;;;;;;15.63;9.44;;;;;;;;;;358890;148;859383;-62
2021/05/22 03:58:53;;;;;;;18.59;7.51;;;;;;;;;;357065;147;858475;-64
2021/05/22 03:59:55;;;;;;;14.01;8.14;;;;;;;;;;356559;148;865026;-64
2021/05/22 04:00:57;;;;;;;13.18;6.57;;;;;;;;;;358928;147;857383;-66
2021/05/22 04:01:59;;;;;;;14.14;6.55;;;;;;;;;;357025;147;857312;-66
2021/05/22 04:03:00;;;;;;;10.75;5.51;;;;;;;;;;357346;147;865002;-65
2021/05/22 04:04:03;;;;;;;16.39;7.66;;;;;;;;;;356273;147;858898;-62
2021/05/22 04:05:05;;;;;;;11.66;7.15;;;;;;;;;;357272;147;866722;-63
2021/05/22 04:06:07;;;;;;;11.06;6.76;;;;;;;;;;356268;148;857775;-64
2021/05/22 04:07:09;;;;;;;12.08;7.37;;;;;;;;;;356405;147;859459;-61
2021/05/22 04:08:11;;;;;;;13.81;7.46;;;;;;;;;;356309;147;865030;-60
2021/05/22 04:09:13;;;;;;;16.44;6.72;;;;;;;;;;356289;147;857745;-62
2021/05/22 04:10:15;;;;;;;12.91;7.07;;;;;;;;;;356667;147;865701;-61
2021/05/22 04:11:17;;;;;;;12.37;7.24;;;;;;;;;;356538;150;858285;-62
2021/05/22 04:12:19;;;;;;;12.19;7.10;;;;;;;;;;357661;148;858716;-61
2021/05/22 04:13:20;;;;;;;15.57;8.00;;;;;;;;;;356086;147;857584;-62
2021/05/22 04:14:22;;;;;;;15.21;7.80;;;;;;;;;;358077;147;860032;-65
2021/05/22 04:15:23;;;;;;;16.09;7.81;;;;;;;;;;355906;148;859883;-62
2021/05/22 04:16:26;;;;;;;10.39;6.17;;;;;;;;;;356683;147;857352;-62
2021/05/22 04:17:28;;;;;;;12.42;6.68;;;;;;;;;;355870;151;866252;-63
2021/05/22 04:18:29;;;;;;;10.21;5.74;;;;;;;;;;356251;147;857197;-63
2021/05/22 04:19:32;;;;;;;11.44;6.51;;;;;;;;;;356252;147;857255;-62
2021/05/22 04:20:35;;;;;;;11.17;5.56;;;;;;;;;;357770;145;857298;-61
2021/05/22 04:21:37;;;;;;;9.58;5.14;;;;;;;;;;359192;147;860169;-61
2021/05/22 04:22:38;;;;;;;8.57;5.32;;;;;;;;;;357996;146;860192;-61
2021/05/22 04:23:40;;;;;;;10.90;6.18;;;;;;;;;;361273;147;857172;-61
2021/05/22 04:24:42;;;;;;;9.75;5.63;;;;;;;;;;358547;147;857270;-61
2021/05/22 04:25:44;;;;;;;15.01;6.40;;;;;;;;;;359189;147;857901;-60
2021/05/22 04:26:46;;;;;;;10.45;5.98;;;;;;;;;;354473;149;865184;-62
2021/05/22 04:27:47;;;;;;;10.68;5.96;;;;;;;;;;356763;147;859652;-62
2021/05/22 04:28:49;;;;;;;11.06;6.66;;;;;;;;;;355653;149;858326;-62
2021/05/22 04:29:50;;;;;;;8.64;5.87;;;;;;;;;;353560;150;865007;-60
2021/05/22 04:30:52;;;;;;;9.87;5.72;;;;;;;;;;357664;146;857206;-61
2021/05/22 04:31:54;;;;;;;11.16;6.07;;;;;;;;;;353867;149;865185;-59
2021/05/22 04:32:55;;;;;;;11.18;6.19;;;;;;;;;;353350;149;857511;-59
2021/05/22 04:33:57;;;;;;;8.94;5.46;;;;;;;;;;352603;150;857370;-60
2021/05/22 04:35:01;;;;;;;9.83;5.37;;;;;;;;;;353457;147;857713;-63
2021/05/22 04:36:03;;;;;;;9.83;5.47;;;;;;;;;;354538;149;858176;-62
2021/05/22 04:37:04;;;;;;;9.27;5.40;;;;;;;;;;353397;149;859645;-61
2021/05/22 04:38:06;;;;;;;9.31;5.33;;;;;;;;;;352693;149;858207;-60
2021/05/22 04:39:07;;;;;;;8.47;4.59;;;;;;;;;;353352;149;857222;-61
2021/05/22 04:40:10;;;;;;;8.07;5.17;;;;;;;;;;353101;149;857314;-60
2021/05/22 04:41:11;;;;;;;7.36;4.51;;;;;;;;;;353867;149;857213;-62
2021/05/22 04:42:13;;;;;;;7.87;4.34;;;;;;;;;;353178;150;857307;-63
2021/05/22 04:43:14;;;;;;;5.01;3.46;;;;;;;;;;349907;150;865349;-62
2021/05/22 04:44:16;;;;;;;4.46;3.26;;;;;;;;;;348210;152;857348;-60
2021/05/22 04:45:18;;;;;;;5.75;3.57;;;;;;;;;;349639;152;867024;-61
2021/05/22 04:46:20;;;;;;;7.80;3.43;;;;;;;;;;348508;152;857389;-60
2021/05/22 04:47:21;;;;;;;5.18;3.51;;;;;;;;;;348278;152;858139;-60
2021/05/22 04:48:23;;;;;;;7.72;3.89;;;;;;;;;;350175;152;859000;-61
2021/05/22 04:49:27;;;;;;;8.01;3.69;;;;;;;;;;348988;151;864977;-61
2021/05/22 04:50:30;;;;;;;6.12;3.54;;;;;;;;;;348283;152;856500;-61
2021/05/22 04:51:31;;;;;;;5.08;3.45;;;;;;;;;;349486;154;857769;-61
2021/05/22 04:52:33;;;;;;;5.44;2.72;;;;;;;;;;349314;150;860840;-61
2021/05/22 04:53:35;;;;;;;4.84;2.16;;;;;;;;;;349443;151;857850;-60
2021/05/22 04:54:36;;;;;;;2.48;2.04;;;;;;;;;;346830;151;864909;-61
2021/05/22 04:55:38;;;;;;;4.27;2.20;;;;;;;;;;351353;150;857381;-62
2021/05/22 04:56:40;;;;;;;3.39;1.97;;;;;;;;;;348969;152;857290;-60
2021/05/22 04:57:42;;;;;;;2.68;2.01;;;;;;;;;;342532;155;857311;-59
2021/05/22 04:58:44;;;;;;;3.35;1.95;;;;;;;;;;342039;154;859458;-59
2021/05/22 04:59:45;;;;;;;4.00;2.01;;;;;;;;;;350366;150;857852;-60
2021/05/22 05:00:47;;;;;;;7.67;2.08;;;;;;;;;;349036;151;857354;-60
2021/05/22 05:01:49;;;;;;;3.24;2.14;;;;;;;;;;348858;150;857230;-59
2021/05/22 05:02:51;;;;;;;2.61;2.09;;;;;;;;;;352242;150;857290;-59
2021/05/22 05:03:53;;;;;;;4.64;1.87;;;;;;;;;;350131;150;857304;-60
2021/05/22 05:04:54;;;;;;;4.92;1.74;;;;;;;;;;350536;150;857268;-59
2021/05/22 05:05:56;;;;;;;3.08;2.07;;;;;;;;;;348447;150;857337;-59
2021/05/22 05:06:57;;;;;;;2.11;1.86;;;;;;;;;;351133;150;857400;-60
2021/05/22 05:07:59;;;;;;;4.09;2.04;;;;;;;;;;351231;150;865599;-59
2021/05/22 05:09:00;;;;;;;2.71;1.73;;;;;;;;;;348999;150;859003;-59
2021/05/22 05:10:02;;;;;;;2.39;1.81;;;;;;;;;;350035;150;857338;-59
2021/05/22 05:11:04;;;;;;;4.45;2.34;;;;;;;;;;348566;150;866530;-59
2021/05/22 05:12:06;;;;;;;3.76;1.76;;;;;;;;;;349703;152;864962;-60
2021/05/22 05:13:08;;;;;;;3.25;1.77;;;;;;;;;;347326;152;857334;-60
2021/05/22 05:14:09;;;;;;;2.56;1.82;;;;;;;;;;349805;152;859332;-60
2021/05/22 05:15:11;;;;;;;6.90;2.10;;;;;;;;;;340631;155;859139;-60
2021/05/22 05:16:14;;;;;;;3.13;1.99;;;;;;;;;;341632;155;857349;-60
2021/05/22 05:17:16;;;;;;;3.79;1.35;;;;;;;;;;344506;153;866163;-60
2021/05/22 05:18:17;;;;;;;2.92;2.08;;;;;;;;;;348891;150;857637;-60
2021/05/22 05:19:19;;;;;;;3.62;1.86;;;;;;;;;;348467;151;858904;-60
2021/05/22 05:20:22;;;;;;;5.97;1.95;;;;;;;;;;351443;152;858194;-60
2021/05/22 05:21:23;;;;;;;5.01;1.98;;;;;;;;;;349804;152;860438;-60
2021/05/22 05:22:26;;;;;;;3.45;1.78;;;;;;;;;;346990;154;864748;-60
2021/05/22 05:23:28;;;;;;;3.74;1.96;;;;;;;;;;346894;152;859248;-60
2021/05/22 05:24:29;;;;;;;3.91;2.09;;;;;;;;;;347513;153;857318;-62
2021/05/22 05:25:31;;;;;;;4.36;1.59;;;;;;;;;;348082;154;858416;-61
2021/05/22 05:26:35;;;;;;;2.79;1.57;;;;;;;;;;347087;152;857384;-61
2021/05/22 05:27:36;;;;;;;5.67;1.59;;;;;;;;;;339648;156;857757;-62
2021/05/22 05:28:38;;;;;;;5.89;1.90;;;;;;;;;;346988;152;865457;-61
2021/05/22 05:29:41;;;;;;;3.20;1.74;;;;;;;;;;346894;154;858875;-61
2021/05/22 05:30:43;;;;;;;4.55;2.05;;;;;;;;;;346494;153;858989;-61
2021/05/22 05:31:44;;;;;;;5.87;1.84;;;;;;;;;;340926;154;857912;-61
2021/05/22 05:32:46;;;;;;;3.27;1.27;;;;;;;;;;346359;154;864965;-61
2021/05/22 05:33:47;;;;;;;3.19;1.94;;;;;;;;;;338326;158;857383;-61
2021/05/22 05:34:49;;;;;;;3.56;1.77;;;;;;;;;;348506;151;857358;-61
2021/05/22 05:35:51;;;;;;;4.64;1.63;;;;;;;;;;349151;153;857235;-61
2021/05/22 05:36:52;;;;;;;3.56;1.51;;;;;;;;;;348691;151;859556;-61
2021/05/22 05:37:54;;;;;;;7.76;1.53;;;;;;;;;;345941;154;864550;-61
2021/05/22 05:38:55;;;;;;;5.53;1.93;;;;;;;;;;348359;153;857362;-64
2021/05/22 05:39:57;;;;;;;2.88;1.72;;;;;;;;;;346719;152;857322;-61
2021/05/22 05:40:59;;;;;;;3.33;1.04;;;;;;;;;;349460;152;857524;-62
2021/05/22 05:42:00;;;;;;;2.73;1.28;;;;;;;;;;346303;152;866171;-61
2021/05/22 05:43:09;;;;;;;4.60;1.46;;;;;;;;;;342550;155;858690;-61
2021/05/22 05:44:08;;;;;;;5.45;1.56;;;;;;;;;;345669;153;857494;-60
2021/05/22 05:45:10;;;;;;;2.56;1.60;;;;;;;;;;345458;152;860516;-60
2021/05/22 05:46:13;;;;;;;2.81;1.26;;;;;;;;;;346088;154;857950;-61
2021/05/22 05:47:14;;;;;;;6.46;1.44;;;;;;;;;;345506;153;860350;-60
2021/05/22 05:48:16;;;;;;;4.26;1.54;;;;;;;;;;340266;158;864918;-62
2021/05/22 05:49:17;;;;;;;2.19;1.19;;;;;;;;;;340718;156;857376;-60
2021/05/22 05:50:19;;;;;;;3.36;1.33;;;;;;;;;;345650;153;857551;-64
2021/05/22 05:51:21;;;;;;;4.38;1.30;;;;;;;;;;348712;153;857460;-60
2021/05/22 05:52:23;;;;;;;1.71;1.20;;;;;;;;;;346619;153;866317;-61
2021/05/22 05:53:24;;;;;;;5.56;1.25;;;;;;;;;;346545;152;857570;-64
2021/05/22 05:54:26;;;;;;;2.05;1.25;;;;;;;;;;346429;155;858326;-61
2021/05/22 05:55:28;;;;;;;1.66;1.09;;;;;;;;;;345591;152;866860;-60
2021/05/22 05:56:31;;;;;;;2.36;1.04;;;;;;;;;;346171;154;858738;-63
2021/05/22 05:57:33;;;;;;;2.95;1.12;;;;;;;;;;347187;152;859105;-65
2021/05/22 05:58:34;;;;;;;2.04;1.26;;;;;;;;;;340292;157;859986;-62